Denham Springs, LA

11:22 PM CDT on September 04, 2015 (GMT -0500)
Edmonds | | Change Station
CLOSE
Current Station
Personal Weather Station
Location: Denham Springs, LA
Elevation: 75 ft
Nearby Weather Stations

Elev 75 ft 30.58 °N, 90.95 °W | Updated 9 minutes ago

Partly Cloudy
Partly Cloudy
76.1 °F
Feels Like 76 °F
N
0.0
Wind Variable Wind from ESE

Today
High -- | Low -- °F
--% Chance of Precip.
Yesterday
High -- | Low -- °F
Precip. -- in
6:41 AM 7:23 PM
Waning Gibbous, 53% visible
Pressure 29.98 in
Visibility 10.0 miles
Clouds Clear
Heat Index 76 °F
Dew Point 75 °F
Humidity 95%
Rainfall 0.00 in
Snow Depth Not available.
UV 0 out of 12
Pollen 7.90 out of 12
Air Quality Not available.
Flu Activity Not available.
METAR KBTR 050353Z 00000KT 10SM CLR 26/23 A2998 RMK AO2 SLP151 T02560233
Pressure 29.98 in
Visibility 10.0 miles
Clouds Clear
Heat Index 76 °F
Dew Point 75 °F
Humidity 95%
Rainfall 0.00 in
Snow Depth Not available.
UV 0 out of 12
Pollen 7.90 out of 12
Air Quality Not available.
Flu Activity Not available.
METAR KBTR 050353Z 00000KT 10SM CLR 26/23 A2998 RMK AO2 SLP151 T02560233

10-Day Weather Forecast

×

Almanac

Astronomy

Sep. 04, 2015 Rise Set
Actual Time
Civil Twilight
Nautical Twilight
Astronomical Twilight
Moon
Length of Visible Light
Length of Day
Tomorrow will be .
, % of the Moon is Illuminated

Today's Extremes

State Highs State Lows

Community

WunderPhotos

Upload Photos

1,852,423 photos uploaded!

WunderBlogs® & News

Nearby

Air Quality

  Air Quality AQ Index Pollutant
Not available.

Snow Depth

Station Depth Elevation

Earthquake Activity

City Distance Mag. Time & Date
Minimum magnitude displayed is 2.5.

Coastal Water Temperatures

Place Temperature

Stations

Nearby Weather Stations

Station Location Temp. Windchill Dew Point Humidity Wind Precip. Elev Updated Type